sensor_id;sensor_type;location;lat;lon;timestamp;P1;durP1;ratioP1;P2;durP2;ratioP2
84901;SDS011;75166;51.198;6.010;2023-12-28T00:00:35;4.70;;;1.80;;
84901;SDS011;75166;51.198;6.010;2023-12-28T00:03:02;6.25;;;2.03;;
84901;SDS011;75166;51.198;6.010;2023-12-28T00:05:29;7.30;;;2.05;;
84901;SDS011;75166;51.198;6.010;2023-12-28T00:07:55;6.30;;;1.80;;
84901;SDS011;75166;51.198;6.010;2023-12-28T00:10:25;6.45;;;1.88;;
84901;SDS011;75166;51.198;6.010;2023-12-28T00:12:53;6.78;;;1.98;;
84901;SDS011;75166;51.198;6.010;2023-12-28T00:15:20;5.40;;;1.80;;
84901;SDS011;75166;51.198;6.010;2023-12-28T00:17:47;5.95;;;1.80;;
84901;SDS011;75166;51.198;6.010;2023-12-28T00:20:13;5.90;;;1.95;;
84901;SDS011;75166;51.198;6.010;2023-12-28T00:22:40;4.88;;;1.75;;
84901;SDS011;75166;51.198;6.010;2023-12-28T00:25:07;6.10;;;2.00;;
84901;SDS011;75166;51.198;6.010;2023-12-28T00:27:33;5.88;;;1.90;;
84901;SDS011;75166;51.198;6.010;2023-12-28T00:30:01;4.97;;;1.80;;
84901;SDS011;75166;51.198;6.010;2023-12-28T00:32:28;5.40;;;1.80;;
84901;SDS011;75166;51.198;6.010;2023-12-28T00:34:54;5.93;;;1.73;;
84901;SDS011;75166;51.198;6.010;2023-12-28T00:37:21;5.95;;;1.88;;
84901;SDS011;75166;51.198;6.010;2023-12-28T00:39:47;5.32;;;1.90;;
84901;SDS011;75166;51.198;6.010;2023-12-28T00:42:17;5.50;;;1.90;;
84901;SDS011;75166;51.198;6.010;2023-12-28T00:44:44;5.82;;;1.90;;
84901;SDS011;75166;51.198;6.010;2023-12-28T00:47:10;4.80;;;1.90;;
84901;SDS011;75166;51.198;6.010;2023-12-28T00:49:37;5.93;;;2.20;;
84901;SDS011;75166;51.198;6.010;2023-12-28T00:52:04;6.28;;;1.83;;
84901;SDS011;75166;51.198;6.010;2023-12-28T00:54:30;5.88;;;1.90;;
84901;SDS011;75166;51.198;6.010;2023-12-28T00:56:57;5.90;;;1.88;;
84901;SDS011;75166;51.198;6.010;2023-12-28T00:59:24;6.43;;;2.10;;
84901;SDS011;75166;51.198;6.010;2023-12-28T01:01:50;5.40;;;1.85;;
84901;SDS011;75166;51.198;6.010;2023-12-28T01:04:17;5.40;;;1.80;;
84901;SDS011;75166;51.198;6.010;2023-12-28T01:06:44;5.70;;;1.80;;
84901;SDS011;75166;51.198;6.010;2023-12-28T01:09:11;5.45;;;2.08;;
84901;SDS011;75166;51.198;6.010;2023-12-28T01:11:37;4.60;;;1.65;;
84901;SDS011;75166;51.198;6.010;2023-12-28T01:14:04;6.35;;;1.90;;
84901;SDS011;75166;51.198;6.010;2023-12-28T01:16:30;5.07;;;1.90;;
84901;SDS011;75166;51.198;6.010;2023-12-28T01:18:57;5.55;;;1.92;;
84901;SDS011;75166;51.198;6.010;2023-12-28T01:21:24;6.28;;;1.92;;
84901;SDS011;75166;51.198;6.010;2023-12-28T01:23:51;6.00;;;2.00;;
84901;SDS011;75166;51.198;6.010;2023-12-28T01:26:17;6.47;;;2.03;;
84901;SDS011;75166;51.198;6.010;2023-12-28T01:28:44;5.78;;;1.90;;
84901;SDS011;75166;51.198;6.010;2023-12-28T01:31:10;6.07;;;1.90;;
84901;SDS011;75166;51.198;6.010;2023-12-28T01:33:37;5.63;;;1.90;;
84901;SDS011;75166;51.198;6.010;2023-12-28T01:36:15;5.47;;;1.80;;
84901;SDS011;75166;51.198;6.010;2023-12-28T01:38:42;5.47;;;1.98;;
84901;SDS011;75166;51.198;6.010;2023-12-28T01:41:09;6.10;;;1.92;;
84901;SDS011;75166;51.198;6.010;2023-12-28T01:43:36;5.03;;;1.80;;
84901;SDS011;75166;51.198;6.010;2023-12-28T01:46:02;6.30;;;2.03;;
84901;SDS011;75166;51.198;6.010;2023-12-28T01:48:30;4.95;;;1.88;;
84901;SDS011;75166;51.198;6.010;2023-12-28T01:50:56;5.72;;;1.92;;
84901;SDS011;75166;51.198;6.010;2023-12-28T01:53:24;5.88;;;2.00;;
84901;SDS011;75166;51.198;6.010;2023-12-28T01:55:51;5.57;;;1.90;;
84901;SDS011;75166;51.198;6.010;2023-12-28T01:58:18;5.40;;;1.90;;
84901;SDS011;75166;51.198;6.010;2023-12-28T02:00:45;6.65;;;2.10;;
84901;SDS011;75166;51.198;6.010;2023-12-28T02:03:12;6.53;;;1.88;;
84901;SDS011;75166;51.198;6.010;2023-12-28T02:05:39;6.05;;;2.00;;
84901;SDS011;75166;51.198;6.010;2023-12-28T02:08:05;5.93;;;1.90;;
84901;SDS011;75166;51.198;6.010;2023-12-28T02:10:32;6.43;;;2.03;;
84901;SDS011;75166;51.198;6.010;2023-12-28T02:12:59;6.72;;;1.83;;
84901;SDS011;75166;51.198;6.010;2023-12-28T02:15:25;6.45;;;1.90;;
84901;SDS011;75166;51.198;6.010;2023-12-28T02:17:58;5.72;;;1.90;;
84901;SDS011;75166;51.198;6.010;2023-12-28T02:20:45;5.68;;;2.00;;
84901;SDS011;75166;51.198;6.010;2023-12-28T02:23:13;7.03;;;1.92;;
84901;SDS011;75166;51.198;6.010;2023-12-28T02:25:39;6.18;;;2.00;;
84901;SDS011;75166;51.198;6.010;2023-12-28T02:28:06;5.28;;;1.92;;
84901;SDS011;75166;51.198;6.010;2023-12-28T02:30:33;5.53;;;1.98;;
84901;SDS011;75166;51.198;6.010;2023-12-28T02:35:45;6.35;;;2.00;;
84901;SDS011;75166;51.198;6.010;2023-12-28T02:38:18;6.63;;;2.00;;
84901;SDS011;75166;51.198;6.010;2023-12-28T02:40:46;5.82;;;2.00;;
84901;SDS011;75166;51.198;6.010;2023-12-28T02:43:14;5.65;;;2.00;;
84901;SDS011;75166;51.198;6.010;2023-12-28T02:45:41;6.20;;;2.03;;
84901;SDS011;75166;51.198;6.010;2023-12-28T02:48:08;6.90;;;1.95;;
84901;SDS011;75166;51.198;6.010;2023-12-28T02:50:34;7.28;;;2.10;;
84901;SDS011;75166;51.198;6.010;2023-12-28T02:53:02;5.75;;;1.83;;
84901;SDS011;75166;51.198;6.010;2023-12-28T02:55:29;6.40;;;2.03;;
84901;SDS011;75166;51.198;6.010;2023-12-28T02:57:56;5.88;;;2.00;;
84901;SDS011;75166;51.198;6.010;2023-12-28T03:00:26;5.95;;;1.95;;
84901;SDS011;75166;51.198;6.010;2023-12-28T03:02:52;7.30;;;2.15;;
84901;SDS011;75166;51.198;6.010;2023-12-28T03:05:19;6.75;;;2.05;;
84901;SDS011;75166;51.198;6.010;2023-12-28T03:07:45;4.97;;;1.90;;
84901;SDS011;75166;51.198;6.010;2023-12-28T03:10:11;5.63;;;2.05;;
84901;SDS011;75166;51.198;6.010;2023-12-28T03:12:38;7.00;;;1.85;;
84901;SDS011;75166;51.198;6.010;2023-12-28T03:15:05;5.47;;;2.05;;
84901;SDS011;75166;51.198;6.010;2023-12-28T03:17:31;6.43;;;1.80;;
84901;SDS011;75166;51.198;6.010;2023-12-28T03:19:59;6.25;;;2.00;;
84901;SDS011;75166;51.198;6.010;2023-12-28T03:22:25;6.85;;;2.00;;
84901;SDS011;75166;51.198;6.010;2023-12-28T03:24:52;4.75;;;1.85;;
84901;SDS011;75166;51.198;6.010;2023-12-28T03:27:18;6.57;;;2.03;;
84901;SDS011;75166;51.198;6.010;2023-12-28T03:29:44;5.07;;;1.85;;
84901;SDS011;75166;51.198;6.010;2023-12-28T03:32:10;5.32;;;1.92;;
84901;SDS011;75166;51.198;6.010;2023-12-28T03:34:37;5.60;;;1.92;;
84901;SDS011;75166;51.198;6.010;2023-12-28T03:37:03;5.43;;;1.90;;
84901;SDS011;75166;51.198;6.010;2023-12-28T03:39:30;5.35;;;2.03;;
84901;SDS011;75166;51.198;6.010;2023-12-28T03:41:56;7.07;;;2.20;;
84901;SDS011;75166;51.198;6.010;2023-12-28T03:44:22;5.57;;;2.00;;
84901;SDS011;75166;51.198;6.010;2023-12-28T03:46:49;6.00;;;1.80;;
84901;SDS011;75166;51.198;6.010;2023-12-28T03:49:17;5.60;;;1.95;;
84901;SDS011;75166;51.198;6.010;2023-12-28T03:51:44;5.97;;;2.00;;
84901;SDS011;75166;51.198;6.010;2023-12-28T03:54:11;7.18;;;2.10;;
84901;SDS011;75166;51.198;6.010;2023-12-28T03:56:37;5.60;;;2.03;;
84901;SDS011;75166;51.198;6.010;2023-12-28T03:59:05;4.97;;;1.90;;
84901;SDS011;75166;51.198;6.010;2023-12-28T04:01:35;5.28;;;1.90;;
84901;SDS011;75166;51.198;6.010;2023-12-28T04:04:02;5.38;;;1.83;;
84901;SDS011;75166;51.198;6.010;2023-12-28T04:06:29;5.93;;;2.00;;
84901;SDS011;75166;51.198;6.010;2023-12-28T04:08:55;6.07;;;1.92;;
84901;SDS011;75166;51.198;6.010;2023-12-28T04:11:22;6.43;;;1.83;;
84901;SDS011;75166;51.198;6.010;2023-12-28T04:13:49;6.55;;;1.90;;
84901;SDS011;75166;51.198;6.010;2023-12-28T04:16:15;5.97;;;1.90;;
84901;SDS011;75166;51.198;6.010;2023-12-28T04:18:42;5.53;;;1.95;;
84901;SDS011;75166;51.198;6.010;2023-12-28T04:21:12;5.97;;;1.90;;
84901;SDS011;75166;51.198;6.010;2023-12-28T04:23:39;6.22;;;1.90;;
84901;SDS011;75166;51.198;6.010;2023-12-28T04:26:06;5.57;;;1.77;;
84901;SDS011;75166;51.198;6.010;2023-12-28T04:28:33;4.60;;;1.73;;
84901;SDS011;75166;51.198;6.010;2023-12-28T04:31:03;6.40;;;1.98;;
84901;SDS011;75166;51.198;6.010;2023-12-28T04:33:31;7.43;;;2.10;;
84901;SDS011;75166;51.198;6.010;2023-12-28T04:36:01;5.20;;;1.85;;
84901;SDS011;75166;51.198;6.010;2023-12-28T04:38:31;6.75;;;2.00;;
84901;SDS011;75166;51.198;6.010;2023-12-28T04:40:57;6.35;;;1.95;;
84901;SDS011;75166;51.198;6.010;2023-12-28T04:43:24;5.47;;;1.80;;
84901;SDS011;75166;51.198;6.010;2023-12-28T04:45:51;6.40;;;1.85;;
84901;SDS011;75166;51.198;6.010;2023-12-28T04:48:17;5.53;;;1.90;;
84901;SDS011;75166;51.198;6.010;2023-12-28T04:50:49;5.80;;;1.95;;
84901;SDS011;75166;51.198;6.010;2023-12-28T04:53:16;6.00;;;1.83;;
84901;SDS011;75166;51.198;6.010;2023-12-28T04:55:42;5.95;;;1.90;;
84901;SDS011;75166;51.198;6.010;2023-12-28T04:58:10;5.65;;;1.75;;
84901;SDS011;75166;51.198;6.010;2023-12-28T05:00:36;5.85;;;1.73;;
84901;SDS011;75166;51.198;6.010;2023-12-28T05:03:03;6.05;;;1.83;;
84901;SDS011;75166;51.198;6.010;2023-12-28T05:05:29;7.05;;;2.10;;
84901;SDS011;75166;51.198;6.010;2023-12-28T05:07:56;6.63;;;1.98;;
84901;SDS011;75166;51.198;6.010;2023-12-28T05:10:22;5.40;;;1.65;;
84901;SDS011;75166;51.198;6.010;2023-12-28T05:12:48;5.00;;;1.73;;
84901;SDS011;75166;51.198;6.010;2023-12-28T05:15:15;6.07;;;1.80;;
84901;SDS011;75166;51.198;6.010;2023-12-28T05:17:42;4.93;;;1.83;;
84901;SDS011;75166;51.198;6.010;2023-12-28T05:20:09;6.25;;;1.77;;
84901;SDS011;75166;51.198;6.010;2023-12-28T05:22:35;4.15;;;1.65;;
84901;SDS011;75166;51.198;6.010;2023-12-28T05:25:01;5.90;;;1.83;;
84901;SDS011;75166;51.198;6.010;2023-12-28T05:27:28;3.88;;;1.63;;
84901;SDS011;75166;51.198;6.010;2023-12-28T05:29:54;3.97;;;1.67;;
84901;SDS011;75166;51.198;6.010;2023-12-28T05:32:20;4.82;;;1.65;;
84901;SDS011;75166;51.198;6.010;2023-12-28T05:34:47;7.10;;;1.90;;
84901;SDS011;75166;51.198;6.010;2023-12-28T05:37:14;5.55;;;1.70;;
84901;SDS011;75166;51.198;6.010;2023-12-28T05:39:40;5.22;;;1.63;;
84901;SDS011;75166;51.198;6.010;2023-12-28T05:42:07;6.10;;;1.83;;
84901;SDS011;75166;51.198;6.010;2023-12-28T05:44:33;5.70;;;1.70;;
84901;SDS011;75166;51.198;6.010;2023-12-28T05:46:59;4.85;;;1.60;;
84901;SDS011;75166;51.198;6.010;2023-12-28T05:49:26;5.07;;;1.80;;
84901;SDS011;75166;51.198;6.010;2023-12-28T05:51:54;6.32;;;1.70;;
84901;SDS011;75166;51.198;6.010;2023-12-28T05:54:21;6.47;;;1.70;;
84901;SDS011;75166;51.198;6.010;2023-12-28T05:56:47;7.63;;;2.15;;
84901;SDS011;75166;51.198;6.010;2023-12-28T05:59:14;6.13;;;1.80;;
84901;SDS011;75166;51.198;6.010;2023-12-28T06:01:41;6.30;;;1.80;;
84901;SDS011;75166;51.198;6.010;2023-12-28T06:04:10;6.30;;;1.70;;
84901;SDS011;75166;51.198;6.010;2023-12-28T06:06:37;6.47;;;1.70;;
84901;SDS011;75166;51.198;6.010;2023-12-28T06:09:03;5.40;;;1.60;;
84901;SDS011;75166;51.198;6.010;2023-12-28T06:11:29;4.50;;;1.63;;
84901;SDS011;75166;51.198;6.010;2023-12-28T06:13:56;5.35;;;1.70;;
84901;SDS011;75166;51.198;6.010;2023-12-28T06:16:23;5.82;;;1.77;;
84901;SDS011;75166;51.198;6.010;2023-12-28T06:18:49;5.50;;;1.67;;
84901;SDS011;75166;51.198;6.010;2023-12-28T06:21:15;7.32;;;1.83;;
84901;SDS011;75166;51.198;6.010;2023-12-28T06:23:42;7.35;;;1.80;;
84901;SDS011;75166;51.198;6.010;2023-12-28T06:26:08;7.43;;;1.90;;
84901;SDS011;75166;51.198;6.010;2023-12-28T06:28:34;5.32;;;1.65;;
84901;SDS011;75166;51.198;6.010;2023-12-28T06:31:01;4.38;;;1.52;;
84901;SDS011;75166;51.198;6.010;2023-12-28T06:33:29;7.53;;;1.70;;
84901;SDS011;75166;51.198;6.010;2023-12-28T06:35:55;6.90;;;1.73;;
84901;SDS011;75166;51.198;6.010;2023-12-28T06:38:24;7.43;;;1.80;;
84901;SDS011;75166;51.198;6.010;2023-12-28T06:40:51;5.00;;;1.45;;
84901;SDS011;75166;51.198;6.010;2023-12-28T06:43:18;9.38;;;1.90;;
84901;SDS011;75166;51.198;6.010;2023-12-28T06:45:44;10.80;;;2.20;;
84901;SDS011;75166;51.198;6.010;2023-12-28T06:48:10;8.73;;;1.70;;
84901;SDS011;75166;51.198;6.010;2023-12-28T06:50:36;6.53;;;1.70;;
84901;SDS011;75166;51.198;6.010;2023-12-28T06:53:03;5.97;;;1.70;;
84901;SDS011;75166;51.198;6.010;2023-12-28T06:55:29;7.18;;;1.70;;
84901;SDS011;75166;51.198;6.010;2023-12-28T06:57:56;6.20;;;1.70;;
84901;SDS011;75166;51.198;6.010;2023-12-28T07:00:22;6.55;;;1.80;;
84901;SDS011;75166;51.198;6.010;2023-12-28T07:02:49;6.78;;;1.60;;
84901;SDS011;75166;51.198;6.010;2023-12-28T07:05:15;7.60;;;1.63;;
84901;SDS011;75166;51.198;6.010;2023-12-28T07:07:42;5.10;;;1.50;;
84901;SDS011;75166;51.198;6.010;2023-12-28T07:10:08;7.45;;;1.55;;
84901;SDS011;75166;51.198;6.010;2023-12-28T07:12:34;6.07;;;1.70;;
84901;SDS011;75166;51.198;6.010;2023-12-28T07:15:01;9.00;;;1.80;;
84901;SDS011;75166;51.198;6.010;2023-12-28T07:17:27;7.95;;;1.90;;
84901;SDS011;75166;51.198;6.010;2023-12-28T07:19:54;6.72;;;1.50;;
84901;SDS011;75166;51.198;6.010;2023-12-28T07:22:20;6.03;;;1.70;;
84901;SDS011;75166;51.198;6.010;2023-12-28T07:24:47;6.68;;;1.40;;
84901;SDS011;75166;51.198;6.010;2023-12-28T07:27:13;5.57;;;1.40;;
84901;SDS011;75166;51.198;6.010;2023-12-28T07:29:40;5.82;;;1.52;;
84901;SDS011;75166;51.198;6.010;2023-12-28T07:32:06;7.55;;;1.67;;
84901;SDS011;75166;51.198;6.010;2023-12-28T07:34:35;6.93;;;1.73;;
84901;SDS011;75166;51.198;6.010;2023-12-28T07:37:01;6.60;;;1.80;;
84901;SDS011;75166;51.198;6.010;2023-12-28T07:39:28;6.63;;;1.75;;
84901;SDS011;75166;51.198;6.010;2023-12-28T07:41:54;7.78;;;1.67;;
84901;SDS011;75166;51.198;6.010;2023-12-28T07:44:20;7.30;;;1.55;;
84901;SDS011;75166;51.198;6.010;2023-12-28T07:46:47;8.63;;;1.90;;
84901;SDS011;75166;51.198;6.010;2023-12-28T07:49:13;6.38;;;1.77;;
84901;SDS011;75166;51.198;6.010;2023-12-28T07:51:39;7.32;;;1.77;;
84901;SDS011;75166;51.198;6.010;2023-12-28T07:54:06;9.43;;;1.80;;
84901;SDS011;75166;51.198;6.010;2023-12-28T07:56:32;6.50;;;1.63;;
84901;SDS011;75166;51.198;6.010;2023-12-28T07:58:58;7.78;;;1.70;;
84901;SDS011;75166;51.198;6.010;2023-12-28T08:01:25;5.40;;;1.65;;
84901;SDS011;75166;51.198;6.010;2023-12-28T08:03:51;6.82;;;1.60;;
84901;SDS011;75166;51.198;6.010;2023-12-28T08:06:17;7.88;;;1.60;;
84901;SDS011;75166;51.198;6.010;2023-12-28T08:08:44;8.32;;;1.77;;
84901;SDS011;75166;51.198;6.010;2023-12-28T08:11:10;7.80;;;1.80;;
84901;SDS011;75166;51.198;6.010;2023-12-28T08:13:37;8.23;;;1.70;;
84901;SDS011;75166;51.198;6.010;2023-12-28T08:16:04;7.40;;;1.80;;
84901;SDS011;75166;51.198;6.010;2023-12-28T08:18:30;8.48;;;1.80;;
84901;SDS011;75166;51.198;6.010;2023-12-28T08:20:56;6.60;;;1.67;;
84901;SDS011;75166;51.198;6.010;2023-12-28T08:23:22;7.85;;;1.70;;
84901;SDS011;75166;51.198;6.010;2023-12-28T08:25:49;7.38;;;1.60;;
84901;SDS011;75166;51.198;6.010;2023-12-28T08:28:15;8.73;;;1.58;;
84901;SDS011;75166;51.198;6.010;2023-12-28T08:30:43;6.82;;;1.42;;
84901;SDS011;75166;51.198;6.010;2023-12-28T08:33:09;6.90;;;1.70;;
84901;SDS011;75166;51.198;6.010;2023-12-28T08:35:36;9.32;;;1.92;;
84901;SDS011;75166;51.198;6.010;2023-12-28T08:38:02;13.32;;;2.55;;
84901;SDS011;75166;51.198;6.010;2023-12-28T08:40:29;17.92;;;3.15;;
84901;SDS011;75166;51.198;6.010;2023-12-28T08:42:55;15.02;;;3.42;;
84901;SDS011;75166;51.198;6.010;2023-12-28T08:45:21;15.77;;;3.00;;
84901;SDS011;75166;51.198;6.010;2023-12-28T08:47:48;22.23;;;3.50;;
84901;SDS011;75166;51.198;6.010;2023-12-28T08:50:14;18.50;;;3.22;;
84901;SDS011;75166;51.198;6.010;2023-12-28T08:52:40;17.38;;;3.35;;
84901;SDS011;75166;51.198;6.010;2023-12-28T08:55:07;15.73;;;3.30;;
84901;SDS011;75166;51.198;6.010;2023-12-28T08:57:33;18.85;;;3.42;;
84901;SDS011;75166;51.198;6.010;2023-12-28T09:00:00;17.35;;;3.03;;
84901;SDS011;75166;51.198;6.010;2023-12-28T09:02:29;21.17;;;3.80;;
84901;SDS011;75166;51.198;6.010;2023-12-28T09:04:55;14.75;;;3.03;;
84901;SDS011;75166;51.198;6.010;2023-12-28T09:07:24;16.75;;;2.75;;
84901;SDS011;75166;51.198;6.010;2023-12-28T09:09:50;15.23;;;2.70;;
84901;SDS011;75166;51.198;6.010;2023-12-28T09:12:16;15.40;;;2.63;;
84901;SDS011;75166;51.198;6.010;2023-12-28T09:14:43;13.95;;;2.60;;
84901;SDS011;75166;51.198;6.010;2023-12-28T09:17:09;13.55;;;2.72;;
84901;SDS011;75166;51.198;6.010;2023-12-28T09:19:36;12.63;;;2.42;;
84901;SDS011;75166;51.198;6.010;2023-12-28T09:22:03;13.90;;;2.45;;
84901;SDS011;75166;51.198;6.010;2023-12-28T09:24:29;14.80;;;2.80;;
84901;SDS011;75166;51.198;6.010;2023-12-28T09:26:56;10.80;;;2.28;;
84901;SDS011;75166;51.198;6.010;2023-12-28T09:29:23;15.18;;;2.30;;
84901;SDS011;75166;51.198;6.010;2023-12-28T09:31:49;10.18;;;2.13;;
84901;SDS011;75166;51.198;6.010;2023-12-28T09:34:15;14.70;;;2.45;;
84901;SDS011;75166;51.198;6.010;2023-12-28T09:36:42;14.20;;;2.50;;
84901;SDS011;75166;51.198;6.010;2023-12-28T09:39:08;11.77;;;2.20;;
84901;SDS011;75166;51.198;6.010;2023-12-28T09:41:36;12.30;;;2.40;;
84901;SDS011;75166;51.198;6.010;2023-12-28T09:44:10;10.07;;;2.03;;
84901;SDS011;75166;51.198;6.010;2023-12-28T09:46:41;13.02;;;2.40;;
84901;SDS011;75166;51.198;6.010;2023-12-28T09:49:09;12.32;;;2.22;;
84901;SDS011;75166;51.198;6.010;2023-12-28T09:51:36;12.70;;;2.38;;
84901;SDS011;75166;51.198;6.010;2023-12-28T09:54:03;13.25;;;2.40;;
84901;SDS011;75166;51.198;6.010;2023-12-28T09:56:30;12.63;;;2.20;;
84901;SDS011;75166;51.198;6.010;2023-12-28T09:58:58;10.55;;;2.10;;
84901;SDS011;75166;51.198;6.010;2023-12-28T10:01:25;10.88;;;1.92;;
84901;SDS011;75166;51.198;6.010;2023-12-28T10:03:52;9.93;;;2.22;;
84901;SDS011;75166;51.198;6.010;2023-12-28T10:06:19;13.77;;;2.15;;
84901;SDS011;75166;51.198;6.010;2023-12-28T10:08:48;12.10;;;2.40;;
84901;SDS011;75166;51.198;6.010;2023-12-28T10:11:14;12.73;;;2.00;;
84901;SDS011;75166;51.198;6.010;2023-12-28T10:13:42;11.48;;;2.08;;
84901;SDS011;75166;51.198;6.010;2023-12-28T10:16:10;10.30;;;2.05;;
84901;SDS011;75166;51.198;6.010;2023-12-28T10:18:44;9.80;;;1.92;;
84901;SDS011;75166;51.198;6.010;2023-12-28T10:21:11;11.32;;;1.95;;
84901;SDS011;75166;51.198;6.010;2023-12-28T10:23:38;9.40;;;1.92;;
84901;SDS011;75166;51.198;6.010;2023-12-28T10:26:06;9.65;;;1.85;;
84901;SDS011;75166;51.198;6.010;2023-12-28T10:28:34;10.07;;;1.98;;
84901;SDS011;75166;51.198;6.010;2023-12-28T10:31:04;11.57;;;2.13;;
84901;SDS011;75166;51.198;6.010;2023-12-28T10:33:34;10.40;;;1.95;;
84901;SDS011;75166;51.198;6.010;2023-12-28T10:36:04;10.20;;;2.10;;
84901;SDS011;75166;51.198;6.010;2023-12-28T10:38:34;10.82;;;2.15;;
84901;SDS011;75166;51.198;6.010;2023-12-28T10:41:07;10.27;;;1.90;;
84901;SDS011;75166;51.198;6.010;2023-12-28T10:46:10;10.50;;;1.92;;
84901;SDS011;75166;51.198;6.010;2023-12-28T10:48:59;7.25;;;1.63;;
84901;SDS011;75166;51.198;6.010;2023-12-28T10:51:26;9.95;;;1.80;;
84901;SDS011;75166;51.198;6.010;2023-12-28T10:54:08;9.80;;;1.80;;
84901;SDS011;75166;51.198;6.010;2023-12-28T10:59:17;10.38;;;1.90;;
84901;SDS011;75166;51.198;6.010;2023-12-28T11:02:01;8.82;;;1.85;;
84901;SDS011;75166;51.198;6.010;2023-12-28T11:04:46;7.75;;;1.80;;
84901;SDS011;75166;51.198;6.010;2023-12-28T11:07:15;7.85;;;1.70;;
84901;SDS011;75166;51.198;6.010;2023-12-28T11:09:43;7.97;;;1.70;;
84901;SDS011;75166;51.198;6.010;2023-12-28T11:12:11;8.82;;;1.88;;
84901;SDS011;75166;51.198;6.010;2023-12-28T11:14:41;9.73;;;1.92;;
84901;SDS011;75166;51.198;6.010;2023-12-28T11:17:11;7.72;;;1.63;;
84901;SDS011;75166;51.198;6.010;2023-12-28T11:19:40;11.85;;;2.10;;
84901;SDS011;75166;51.198;6.010;2023-12-28T11:22:08;9.45;;;1.70;;
84901;SDS011;75166;51.198;6.010;2023-12-28T11:24:35;10.07;;;2.15;;
84901;SDS011;75166;51.198;6.010;2023-12-28T11:27:02;9.70;;;1.80;;
84901;SDS011;75166;51.198;6.010;2023-12-28T11:29:30;8.07;;;1.92;;
84901;SDS011;75166;51.198;6.010;2023-12-28T11:31:58;8.48;;;1.90;;
84901;SDS011;75166;51.198;6.010;2023-12-28T11:34:25;9.43;;;1.92;;
84901;SDS011;75166;51.198;6.010;2023-12-28T11:36:56;9.57;;;1.88;;
84901;SDS011;75166;51.198;6.010;2023-12-28T11:39:32;8.00;;;1.70;;
84901;SDS011;75166;51.198;6.010;2023-12-28T11:42:04;9.65;;;1.98;;
84901;SDS011;75166;51.198;6.010;2023-12-28T11:44:42;8.82;;;1.75;;
84901;SDS011;75166;51.198;6.010;2023-12-28T11:47:11;7.95;;;1.70;;
84901;SDS011;75166;51.198;6.010;2023-12-28T11:49:41;8.00;;;1.70;;
84901;SDS011;75166;51.198;6.010;2023-12-28T11:52:21;8.15;;;1.80;;
84901;SDS011;75166;51.198;6.010;2023-12-28T11:54:52;9.07;;;1.67;;
84901;SDS011;75166;51.198;6.010;2023-12-28T11:57:19;8.55;;;1.55;;
84901;SDS011;75166;51.198;6.010;2023-12-28T11:59:48;10.02;;;1.95;;
84901;SDS011;75166;51.198;6.010;2023-12-28T12:02:19;10.43;;;1.70;;
84901;SDS011;75166;51.198;6.010;2023-12-28T12:04:46;10.13;;;1.95;;
84901;SDS011;75166;51.198;6.010;2023-12-28T12:07:12;9.20;;;1.80;;
84901;SDS011;75166;51.198;6.010;2023-12-28T12:09:39;7.57;;;1.52;;
84901;SDS011;75166;51.198;6.010;2023-12-28T12:12:06;9.20;;;1.80;;
84901;SDS011;75166;51.198;6.010;2023-12-28T12:14:33;8.90;;;1.70;;
84901;SDS011;75166;51.198;6.010;2023-12-28T12:17:01;8.45;;;1.58;;
84901;SDS011;75166;51.198;6.010;2023-12-28T12:19:28;9.52;;;1.85;;
84901;SDS011;75166;51.198;6.010;2023-12-28T12:21:55;11.30;;;2.00;;
84901;SDS011;75166;51.198;6.010;2023-12-28T12:24:22;8.55;;;1.70;;
84901;SDS011;75166;51.198;6.010;2023-12-28T12:26:51;10.60;;;1.70;;
84901;SDS011;75166;51.198;6.010;2023-12-28T12:29:18;7.95;;;1.70;;
84901;SDS011;75166;51.198;6.010;2023-12-28T12:31:46;10.15;;;1.85;;
84901;SDS011;75166;51.198;6.010;2023-12-28T12:34:17;8.85;;;1.65;;
84901;SDS011;75166;51.198;6.010;2023-12-28T12:36:43;9.10;;;1.90;;
84901;SDS011;75166;51.198;6.010;2023-12-28T12:39:10;8.70;;;1.65;;
84901;SDS011;75166;51.198;6.010;2023-12-28T12:41:37;10.98;;;1.88;;
84901;SDS011;75166;51.198;6.010;2023-12-28T12:44:04;8.65;;;1.90;;
84901;SDS011;75166;51.198;6.010;2023-12-28T12:46:31;7.75;;;1.80;;
84901;SDS011;75166;51.198;6.010;2023-12-28T12:48:58;9.25;;;1.63;;
84901;SDS011;75166;51.198;6.010;2023-12-28T12:51:27;9.63;;;1.90;;
84901;SDS011;75166;51.198;6.010;2023-12-28T12:53:57;10.07;;;1.98;;
84901;SDS011;75166;51.198;6.010;2023-12-28T12:56:28;10.52;;;1.80;;
84901;SDS011;75166;51.198;6.010;2023-12-28T12:58:56;7.60;;;1.50;;
84901;SDS011;75166;51.198;6.010;2023-12-28T13:01:23;7.13;;;1.63;;
84901;SDS011;75166;51.198;6.010;2023-12-28T13:03:50;9.88;;;1.63;;
84901;SDS011;75166;51.198;6.010;2023-12-28T13:06:17;8.80;;;1.60;;
84901;SDS011;75166;51.198;6.010;2023-12-28T13:08:44;10.13;;;2.03;;
84901;SDS011;75166;51.198;6.010;2023-12-28T13:11:11;7.53;;;1.73;;
84901;SDS011;75166;51.198;6.010;2023-12-28T13:13:37;8.55;;;1.83;;
84901;SDS011;75166;51.198;6.010;2023-12-28T13:16:04;7.50;;;1.52;;
84901;SDS011;75166;51.198;6.010;2023-12-28T13:18:31;9.40;;;1.73;;
84901;SDS011;75166;51.198;6.010;2023-12-28T13:20:58;9.60;;;2.13;;
84901;SDS011;75166;51.198;6.010;2023-12-28T13:23:25;8.35;;;1.77;;
84901;SDS011;75166;51.198;6.010;2023-12-28T13:25:51;8.63;;;1.77;;
84901;SDS011;75166;51.198;6.010;2023-12-28T13:28:18;8.93;;;1.73;;
84901;SDS011;75166;51.198;6.010;2023-12-28T13:30:44;8.18;;;1.70;;
84901;SDS011;75166;51.198;6.010;2023-12-28T13:33:11;8.25;;;1.67;;
84901;SDS011;75166;51.198;6.010;2023-12-28T13:35:38;9.93;;;1.80;;
84901;SDS011;75166;51.198;6.010;2023-12-28T13:38:04;9.18;;;1.65;;
84901;SDS011;75166;51.198;6.010;2023-12-28T13:40:31;9.93;;;1.70;;
84901;SDS011;75166;51.198;6.010;2023-12-28T13:42:57;9.73;;;1.80;;
84901;SDS011;75166;51.198;6.010;2023-12-28T13:45:24;9.85;;;1.80;;
84901;SDS011;75166;51.198;6.010;2023-12-28T13:47:51;8.20;;;1.60;;
84901;SDS011;75166;51.198;6.010;2023-12-28T13:50:17;8.93;;;1.77;;
84901;SDS011;75166;51.198;6.010;2023-12-28T13:52:46;9.48;;;1.80;;
84901;SDS011;75166;51.198;6.010;2023-12-28T13:55:12;9.38;;;1.77;;
84901;SDS011;75166;51.198;6.010;2023-12-28T13:57:39;10.98;;;2.00;;
84901;SDS011;75166;51.198;6.010;2023-12-28T14:00:06;8.80;;;1.90;;
84901;SDS011;75166;51.198;6.010;2023-12-28T14:02:33;9.30;;;1.95;;
84901;SDS011;75166;51.198;6.010;2023-12-28T14:05:00;8.40;;;1.73;;
84901;SDS011;75166;51.198;6.010;2023-12-28T14:07:26;9.00;;;1.60;;
84901;SDS011;75166;51.198;6.010;2023-12-28T14:09:53;9.93;;;1.63;;
84901;SDS011;75166;51.198;6.010;2023-12-28T14:12:20;10.45;;;1.85;;
84901;SDS011;75166;51.198;6.010;2023-12-28T14:14:46;10.15;;;1.65;;
84901;SDS011;75166;51.198;6.010;2023-12-28T14:17:13;7.55;;;1.90;;
84901;SDS011;75166;51.198;6.010;2023-12-28T14:19:41;10.85;;;1.90;;
84901;SDS011;75166;51.198;6.010;2023-12-28T14:22:08;9.35;;;1.92;;
84901;SDS011;75166;51.198;6.010;2023-12-28T14:24:34;8.38;;;1.83;;
84901;SDS011;75166;51.198;6.010;2023-12-28T14:27:01;8.18;;;1.70;;
84901;SDS011;75166;51.198;6.010;2023-12-28T14:29:28;8.23;;;1.70;;
84901;SDS011;75166;51.198;6.010;2023-12-28T14:31:55;7.90;;;1.83;;
84901;SDS011;75166;51.198;6.010;2023-12-28T14:34:22;9.18;;;1.60;;
84901;SDS011;75166;51.198;6.010;2023-12-28T14:36:50;6.95;;;1.50;;
84901;SDS011;75166;51.198;6.010;2023-12-28T14:39:18;9.40;;;1.80;;
84901;SDS011;75166;51.198;6.010;2023-12-28T14:41:45;7.90;;;1.75;;
84901;SDS011;75166;51.198;6.010;2023-12-28T14:44:11;8.45;;;1.67;;
84901;SDS011;75166;51.198;6.010;2023-12-28T14:46:38;10.10;;;1.70;;
84901;SDS011;75166;51.198;6.010;2023-12-28T14:49:05;9.32;;;1.77;;
84901;SDS011;75166;51.198;6.010;2023-12-28T14:51:31;7.75;;;1.80;;
84901;SDS011;75166;51.198;6.010;2023-12-28T14:53:58;8.48;;;1.80;;